sensor_id;sensor_type;location;lat;lon;timestamp;pressure;altitude;pressure_sealevel;temperature;humidity
52653;BME280;39353;42.864;12.014;2024-02-26T00:00:40;96731.98;;;19.83;50.35
52653;BME280;39353;42.864;12.014;2024-02-26T00:03:32;96731.84;;;19.82;50.36
52653;BME280;39353;42.864;12.014;2024-02-26T00:06:06;96736.34;;;19.81;50.39
52653;BME280;39353;42.864;12.014;2024-02-26T00:08:37;96734.31;;;19.78;50.41
52653;BME280;39353;42.864;12.014;2024-02-26T00:11:09;96733.08;;;19.76;50.37
52653;BME280;39353;42.864;12.014;2024-02-26T00:13:40;96730.49;;;19.75;50.41
52653;BME280;39353;42.864;12.014;2024-02-26T00:16:11;96731.87;;;19.73;50.65
52653;BME280;39353;42.864;12.014;2024-02-26T00:18:42;96731.55;;;19.70;50.41
52653;BME280;39353;42.864;12.014;2024-02-26T00:21:13;96733.91;;;19.69;50.39
52653;BME280;39353;42.864;12.014;2024-02-26T00:23:46;96733.13;;;19.68;50.52
52653;BME280;39353;42.864;12.014;2024-02-26T00:26:18;96728.00;;;19.67;50.41
52653;BME280;39353;42.864;12.014;2024-02-26T00:28:53;96724.46;;;19.66;50.58
52653;BME280;39353;42.864;12.014;2024-02-26T00:31:24;96724.77;;;19.65;50.53
52653;BME280;39353;42.864;12.014;2024-02-26T00:33:55;96727.26;;;19.64;50.51
52653;BME280;39353;42.864;12.014;2024-02-26T00:36:28;96724.10;;;19.62;50.47
52653;BME280;39353;42.864;12.014;2024-02-26T00:38:58;96720.23;;;19.61;50.57
52653;BME280;39353;42.864;12.014;2024-02-26T00:41:30;96717.39;;;19.61;50.56
52653;BME280;39353;42.864;12.014;2024-02-26T00:44:02;96715.10;;;19.60;50.56
52653;BME280;39353;42.864;12.014;2024-02-26T00:46:34;96714.65;;;19.60;50.47
52653;BME280;39353;42.864;12.014;2024-02-26T00:49:07;96715.50;;;19.59;50.57
52653;BME280;39353;42.864;12.014;2024-02-26T00:51:38;96715.80;;;19.58;50.50
52653;BME280;39353;42.864;12.014;2024-02-26T00:54:10;96715.16;;;19.57;50.61
52653;BME280;39353;42.864;12.014;2024-02-26T00:56:42;96714.52;;;19.57;50.50
52653;BME280;39353;42.864;12.014;2024-02-26T00:59:14;96711.41;;;19.56;50.54
52653;BME280;39353;42.864;12.014;2024-02-26T01:01:47;96708.85;;;19.56;50.54
52653;BME280;39353;42.864;12.014;2024-02-26T01:04:19;96708.42;;;19.54;50.63
52653;BME280;39353;42.864;12.014;2024-02-26T01:06:50;96704.08;;;19.53;50.61
52653;BME280;39353;42.864;12.014;2024-02-26T01:09:22;96705.61;;;19.52;50.64
52653;BME280;39353;42.864;12.014;2024-02-26T01:11:53;96705.09;;;19.50;50.59
52653;BME280;39353;42.864;12.014;2024-02-26T01:14:26;96704.70;;;19.48;50.54
52653;BME280;39353;42.864;12.014;2024-02-26T01:16:58;96693.95;;;19.47;50.72
52653;BME280;39353;42.864;12.014;2024-02-26T01:19:32;96691.60;;;19.47;50.70
52653;BME280;39353;42.864;12.014;2024-02-26T01:22:04;96688.95;;;19.45;50.81
52653;BME280;39353;42.864;12.014;2024-02-26T01:24:36;96688.58;;;19.45;50.64
52653;BME280;39353;42.864;12.014;2024-02-26T01:27:08;96678.59;;;19.44;50.68
52653;BME280;39353;42.864;12.014;2024-02-26T01:29:40;96674.65;;;19.42;50.64
52653;BME280;39353;42.864;12.014;2024-02-26T01:32:13;96676.00;;;19.42;50.79
52653;BME280;39353;42.864;12.014;2024-02-26T01:34:45;96673.77;;;19.42;50.82
52653;BME280;39353;42.864;12.014;2024-02-26T01:37:17;96670.38;;;19.42;50.64
52653;BME280;39353;42.864;12.014;2024-02-26T01:39:54;96668.80;;;19.42;50.80
52653;BME280;39353;42.864;12.014;2024-02-26T01:42:26;96668.77;;;19.40;50.75
52653;BME280;39353;42.864;12.014;2024-02-26T01:44:57;96664.64;;;19.40;50.77
52653;BME280;39353;42.864;12.014;2024-02-26T01:47:44;96655.67;;;19.39;50.79
52653;BME280;39353;42.864;12.014;2024-02-26T01:50:27;96653.36;;;19.38;50.70
52653;BME280;39353;42.864;12.014;2024-02-26T01:53:00;96649.02;;;19.38;50.80
52653;BME280;39353;42.864;12.014;2024-02-26T01:55:32;96651.29;;;19.38;50.77
52653;BME280;39353;42.864;12.014;2024-02-26T01:58:04;96648.62;;;19.37;50.72
52653;BME280;39353;42.864;12.014;2024-02-26T02:00:39;96645.87;;;19.36;50.82
52653;BME280;39353;42.864;12.014;2024-02-26T02:03:11;96639.73;;;19.35;50.80
52653;BME280;39353;42.864;12.014;2024-02-26T02:05:44;96628.59;;;19.34;50.80
52653;BME280;39353;42.864;12.014;2024-02-26T02:08:16;96628.63;;;19.34;50.88
52653;BME280;39353;42.864;12.014;2024-02-26T02:10:49;96628.87;;;19.32;50.81
52653;BME280;39353;42.864;12.014;2024-02-26T02:13:21;96630.55;;;19.32;50.97
52653;BME280;39353;42.864;12.014;2024-02-26T02:15:53;96631.23;;;19.33;50.72
52653;BME280;39353;42.864;12.014;2024-02-26T02:18:26;96630.01;;;19.32;50.85
52653;BME280;39353;42.864;12.014;2024-02-26T02:20:58;96621.26;;;19.30;50.67
52653;BME280;39353;42.864;12.014;2024-02-26T02:23:31;96616.10;;;19.31;50.72
52653;BME280;39353;42.864;12.014;2024-02-26T02:26:02;96621.80;;;19.30;50.89
52653;BME280;39353;42.864;12.014;2024-02-26T02:28:34;96617.57;;;19.30;50.67
52653;BME280;39353;42.864;12.014;2024-02-26T02:31:07;96617.83;;;19.30;50.78
52653;BME280;39353;42.864;12.014;2024-02-26T02:33:40;96612.58;;;19.29;50.87
52653;BME280;39353;42.864;12.014;2024-02-26T02:36:15;96612.44;;;19.27;50.96
52653;BME280;39353;42.864;12.014;2024-02-26T02:38:52;96607.19;;;19.26;50.78
52653;BME280;39353;42.864;12.014;2024-02-26T02:41:23;96603.10;;;19.25;50.90
52653;BME280;39353;42.864;12.014;2024-02-26T02:43:56;96603.00;;;19.26;50.84
52653;BME280;39353;42.864;12.014;2024-02-26T02:46:28;96599.14;;;19.27;50.83
52653;BME280;39353;42.864;12.014;2024-02-26T02:49:00;96594.27;;;19.25;50.88
52653;BME280;39353;42.864;12.014;2024-02-26T02:51:35;96595.98;;;19.26;50.69
52653;BME280;39353;42.864;12.014;2024-02-26T02:54:06;96593.66;;;19.24;50.70
52653;BME280;39353;42.864;12.014;2024-02-26T02:56:38;96586.20;;;19.25;50.90
52653;BME280;39353;42.864;12.014;2024-02-26T02:59:10;96585.90;;;19.25;50.74
52653;BME280;39353;42.864;12.014;2024-02-26T03:01:43;96584.17;;;19.23;50.79
52653;BME280;39353;42.864;12.014;2024-02-26T03:04:14;96583.06;;;19.23;50.83
52653;BME280;39353;42.864;12.014;2024-02-26T03:06:48;96581.54;;;19.23;50.86
52653;BME280;39353;42.864;12.014;2024-02-26T03:09:20;96584.48;;;19.23;50.71
52653;BME280;39353;42.864;12.014;2024-02-26T03:11:51;96580.04;;;19.21;50.83
52653;BME280;39353;42.864;12.014;2024-02-26T03:14:24;96577.25;;;19.21;51.03
52653;BME280;39353;42.864;12.014;2024-02-26T03:16:58;96573.49;;;19.20;50.91
52653;BME280;39353;42.864;12.014;2024-02-26T03:19:31;96572.68;;;19.20;50.89
52653;BME280;39353;42.864;12.014;2024-02-26T03:22:03;96572.61;;;19.18;50.98
52653;BME280;39353;42.864;12.014;2024-02-26T03:24:35;96575.38;;;19.18;51.00
52653;BME280;39353;42.864;12.014;2024-02-26T03:27:07;96572.86;;;19.18;50.92
52653;BME280;39353;42.864;12.014;2024-02-26T03:29:39;96568.52;;;19.18;51.03
52653;BME280;39353;42.864;12.014;2024-02-26T03:32:10;96566.51;;;19.18;50.95
52653;BME280;39353;42.864;12.014;2024-02-26T03:34:42;96567.83;;;19.16;51.00
52653;BME280;39353;42.864;12.014;2024-02-26T03:37:13;96565.04;;;19.16;50.96
52653;BME280;39353;42.864;12.014;2024-02-26T03:39:45;96561.92;;;19.15;50.94
52653;BME280;39353;42.864;12.014;2024-02-26T03:42:17;96560.15;;;19.16;51.05
52653;BME280;39353;42.864;12.014;2024-02-26T03:44:49;96555.73;;;19.16;50.91
52653;BME280;39353;42.864;12.014;2024-02-26T03:47:21;96551.89;;;19.16;50.76
52653;BME280;39353;42.864;12.014;2024-02-26T03:49:52;96551.77;;;19.16;50.83
52653;BME280;39353;42.864;12.014;2024-02-26T03:52:23;96552.55;;;19.14;50.96
52653;BME280;39353;42.864;12.014;2024-02-26T03:54:54;96553.24;;;19.13;50.98
52653;BME280;39353;42.864;12.014;2024-02-26T03:57:25;96548.04;;;19.12;51.04
52653;BME280;39353;42.864;12.014;2024-02-26T03:59:57;96543.83;;;19.11;50.90
52653;BME280;39353;42.864;12.014;2024-02-26T04:02:28;96547.02;;;19.10;51.04
52653;BME280;39353;42.864;12.014;2024-02-26T04:05:02;96549.83;;;19.10;51.15
52653;BME280;39353;42.864;12.014;2024-02-26T04:07:33;96546.95;;;19.10;51.15
52653;BME280;39353;42.864;12.014;2024-02-26T04:10:10;96548.57;;;19.10;51.07
52653;BME280;39353;42.864;12.014;2024-02-26T04:12:42;96554.39;;;19.10;51.02
52653;BME280;39353;42.864;12.014;2024-02-26T04:15:14;96560.73;;;19.08;50.96
52653;BME280;39353;42.864;12.014;2024-02-26T04:17:50;96560.52;;;19.09;50.99
52653;BME280;39353;42.864;12.014;2024-02-26T04:20:21;96555.51;;;19.08;50.95
52653;BME280;39353;42.864;12.014;2024-02-26T04:22:53;96559.80;;;19.09;50.92
52653;BME280;39353;42.864;12.014;2024-02-26T04:25:27;96559.29;;;19.07;51.03
52653;BME280;39353;42.864;12.014;2024-02-26T04:27:59;96559.55;;;19.07;50.99
52653;BME280;39353;42.864;12.014;2024-02-26T04:30:31;96559.22;;;19.07;50.86
52653;BME280;39353;42.864;12.014;2024-02-26T04:33:06;96558.42;;;19.05;51.02
52653;BME280;39353;42.864;12.014;2024-02-26T04:35:38;96559.11;;;19.04;51.09
52653;BME280;39353;42.864;12.014;2024-02-26T04:38:10;96553.09;;;19.03;51.08
52653;BME280;39353;42.864;12.014;2024-02-26T04:40:42;96551.39;;;19.02;51.07
52653;BME280;39353;42.864;12.014;2024-02-26T04:43:14;96552.86;;;19.02;51.01
52653;BME280;39353;42.864;12.014;2024-02-26T04:45:46;96554.49;;;19.02;51.04
52653;BME280;39353;42.864;12.014;2024-02-26T04:48:18;96553.76;;;19.01;51.03
52653;BME280;39353;42.864;12.014;2024-02-26T04:50:49;96551.41;;;19.01;50.96
52653;BME280;39353;42.864;12.014;2024-02-26T04:53:21;96551.37;;;19.01;50.93
52653;BME280;39353;42.864;12.014;2024-02-26T04:55:53;96553.30;;;19.00;50.82
52653;BME280;39353;42.864;12.014;2024-02-26T04:58:25;96555.05;;;19.00;50.91
52653;BME280;39353;42.864;12.014;2024-02-26T05:00:57;96551.94;;;18.99;50.73
52653;BME280;39353;42.864;12.014;2024-02-26T05:03:29;96550.21;;;19.00;50.92
52653;BME280;39353;42.864;12.014;2024-02-26T05:06:02;96549.61;;;19.01;50.77
52653;BME280;39353;42.864;12.014;2024-02-26T05:08:34;96550.84;;;19.00;50.92
52653;BME280;39353;42.864;12.014;2024-02-26T05:11:07;96548.98;;;18.99;51.05
52653;BME280;39353;42.864;12.014;2024-02-26T05:13:38;96546.45;;;18.97;50.94
52653;BME280;39353;42.864;12.014;2024-02-26T05:16:10;96546.37;;;18.97;50.85
52653;BME280;39353;42.864;12.014;2024-02-26T05:18:42;96545.67;;;18.97;50.86
52653;BME280;39353;42.864;12.014;2024-02-26T05:21:13;96540.66;;;18.95;50.92
52653;BME280;39353;42.864;12.014;2024-02-26T05:23:45;96536.36;;;18.95;50.83
52653;BME280;39353;42.864;12.014;2024-02-26T05:26:22;96533.14;;;18.94;50.98
52653;BME280;39353;42.864;12.014;2024-02-26T05:28:53;96537.70;;;18.94;51.02
52653;BME280;39353;42.864;12.014;2024-02-26T05:31:29;96537.59;;;18.94;51.04
52653;BME280;39353;42.864;12.014;2024-02-26T05:34:02;96532.92;;;18.94;50.87
52653;BME280;39353;42.864;12.014;2024-02-26T05:36:35;96531.16;;;18.93;50.88
52653;BME280;39353;42.864;12.014;2024-02-26T05:39:07;96530.79;;;18.93;50.88
52653;BME280;39353;42.864;12.014;2024-02-26T05:41:42;96527.46;;;18.93;50.94
52653;BME280;39353;42.864;12.014;2024-02-26T05:44:14;96531.55;;;18.93;50.90
52653;BME280;39353;42.864;12.014;2024-02-26T05:46:47;96536.91;;;18.93;51.02
52653;BME280;39353;42.864;12.014;2024-02-26T05:49:21;96533.30;;;18.91;50.85
52653;BME280;39353;42.864;12.014;2024-02-26T05:51:52;96534.55;;;18.91;50.90
52653;BME280;39353;42.864;12.014;2024-02-26T05:54:25;96537.11;;;18.91;50.77
52653;BME280;39353;42.864;12.014;2024-02-26T05:57:00;96535.30;;;18.91;50.73
52653;BME280;39353;42.864;12.014;2024-02-26T05:59:34;96536.35;;;18.91;50.75
52653;BME280;39353;42.864;12.014;2024-02-26T06:02:06;96538.08;;;18.91;50.76
52653;BME280;39353;42.864;12.014;2024-02-26T06:04:42;96540.09;;;18.91;50.76
52653;BME280;39353;42.864;12.014;2024-02-26T06:07:13;96541.30;;;18.91;50.78
52653;BME280;39353;42.864;12.014;2024-02-26T06:09:44;96543.58;;;18.91;50.81
52653;BME280;39353;42.864;12.014;2024-02-26T06:12:20;96545.25;;;18.91;50.62
52653;BME280;39353;42.864;12.014;2024-02-26T06:14:54;96548.73;;;18.91;50.89
52653;BME280;39353;42.864;12.014;2024-02-26T06:17:29;96552.60;;;18.89;50.86
52653;BME280;39353;42.864;12.014;2024-02-26T06:20:00;96553.66;;;18.88;50.72
52653;BME280;39353;42.864;12.014;2024-02-26T06:22:36;96552.14;;;18.87;50.85
52653;BME280;39353;42.864;12.014;2024-02-26T06:25:11;96552.56;;;18.87;50.91
52653;BME280;39353;42.864;12.014;2024-02-26T06:27:42;96549.02;;;18.86;50.88
52653;BME280;39353;42.864;12.014;2024-02-26T06:30:16;96552.48;;;18.86;50.75
52653;BME280;39353;42.864;12.014;2024-02-26T06:32:48;96556.02;;;18.84;50.98
52653;BME280;39353;42.864;12.014;2024-02-26T06:35:20;96556.96;;;18.83;51.16
52653;BME280;39353;42.864;12.014;2024-02-26T06:37:56;96560.61;;;18.83;51.08
52653;BME280;39353;42.864;12.014;2024-02-26T06:40:29;96560.27;;;18.83;50.96
52653;BME280;39353;42.864;12.014;2024-02-26T06:43:00;96565.11;;;18.83;51.02
52653;BME280;39353;42.864;12.014;2024-02-26T06:45:33;96567.24;;;18.83;50.99
52653;BME280;39353;42.864;12.014;2024-02-26T06:48:10;96569.39;;;18.82;50.78
52653;BME280;39353;42.864;12.014;2024-02-26T06:50:41;96568.62;;;18.79;50.49
52653;BME280;39353;42.864;12.014;2024-02-26T06:53:13;96572.70;;;18.79;50.66
52653;BME280;39353;42.864;12.014;2024-02-26T06:55:48;96574.52;;;18.78;50.87
52653;BME280;39353;42.864;12.014;2024-02-26T06:58:22;96575.90;;;18.79;50.98
52653;BME280;39353;42.864;12.014;2024-02-26T07:00:54;96571.44;;;18.79;50.86
52653;BME280;39353;42.864;12.014;2024-02-26T07:03:27;96569.76;;;18.79;50.87
52653;BME280;39353;42.864;12.014;2024-02-26T07:06:00;96566.49;;;18.79;50.82
52653;BME280;39353;42.864;12.014;2024-02-26T07:08:34;96562.05;;;18.79;50.99
52653;BME280;39353;42.864;12.014;2024-02-26T07:11:08;96560.06;;;18.78;50.97
52653;BME280;39353;42.864;12.014;2024-02-26T07:13:40;96568.45;;;18.79;51.01
52653;BME280;39353;42.864;12.014;2024-02-26T07:16:11;96568.83;;;18.79;51.09
52653;BME280;39353;42.864;12.014;2024-02-26T07:18:45;96570.09;;;18.79;51.17
52653;BME280;39353;42.864;12.014;2024-02-26T07:21:17;96571.14;;;18.78;51.16
52653;BME280;39353;42.864;12.014;2024-02-26T07:23:52;96581.48;;;18.78;50.91
52653;BME280;39353;42.864;12.014;2024-02-26T07:26:28;96588.27;;;18.77;50.89
52653;BME280;39353;42.864;12.014;2024-02-26T07:29:01;96589.77;;;18.77;50.70
52653;BME280;39353;42.864;12.014;2024-02-26T07:31:34;96591.33;;;18.76;50.88
52653;BME280;39353;42.864;12.014;2024-02-26T07:34:06;96592.79;;;18.76;50.84
52653;BME280;39353;42.864;12.014;2024-02-26T07:36:38;96589.76;;;18.79;50.99
52653;BME280;39353;42.864;12.014;2024-02-26T07:39:09;96591.99;;;18.79;50.13
52653;BME280;39353;42.864;12.014;2024-02-26T07:41:40;96592.59;;;18.75;49.78
52653;BME280;39353;42.864;12.014;2024-02-26T07:44:11;96593.80;;;18.75;50.48
52653;BME280;39353;42.864;12.014;2024-02-26T07:46:42;96594.27;;;18.75;50.62
52653;BME280;39353;42.864;12.014;2024-02-26T07:49:12;96593.59;;;18.73;50.34
52653;BME280;39353;42.864;12.014;2024-02-26T07:51:43;96595.39;;;18.73;50.25
52653;BME280;39353;42.864;12.014;2024-02-26T07:54:14;96599.26;;;18.72;49.83
52653;BME280;39353;42.864;12.014;2024-02-26T07:56:45;96602.74;;;18.68;49.31
52653;BME280;39353;42.864;12.014;2024-02-26T07:59:17;96595.38;;;18.64;49.24
52653;BME280;39353;42.864;12.014;2024-02-26T08:01:51;96597.34;;;18.62;49.03
52653;BME280;39353;42.864;12.014;2024-02-26T08:04:22;96599.24;;;18.60;48.76
52653;BME280;39353;42.864;12.014;2024-02-26T08:06:53;96600.48;;;18.57;48.56
52653;BME280;39353;42.864;12.014;2024-02-26T08:09:24;96600.60;;;18.55;48.23
52653;BME280;39353;42.864;12.014;2024-02-26T08:11:55;96595.79;;;18.54;48.16
52653;BME280;39353;42.864;12.014;2024-02-26T08:14:27;96598.45;;;18.54;48.48
52653;BME280;39353;42.864;12.014;2024-02-26T08:16:58;96601.30;;;18.56;48.50
52653;BME280;39353;42.864;12.014;2024-02-26T08:19:29;96599.80;;;18.58;48.93
52653;BME280;39353;42.864;12.014;2024-02-26T08:22:01;96603.95;;;18.61;49.05
52653;BME280;39353;42.864;12.014;2024-02-26T08:24:33;96610.78;;;18.63;48.97
52653;BME280;39353;42.864;12.014;2024-02-26T08:27:06;96607.63;;;18.65;49.36
52653;BME280;39353;42.864;12.014;2024-02-26T08:29:40;96603.75;;;18.66;49.26
52653;BME280;39353;42.864;12.014;2024-02-26T08:32:11;96603.33;;;18.67;49.40
52653;BME280;39353;42.864;12.014;2024-02-26T08:34:42;96599.64;;;18.68;49.53
52653;BME280;39353;42.864;12.014;2024-02-26T08:37:13;96597.27;;;18.70;49.65
52653;BME280;39353;42.864;12.014;2024-02-26T08:39:45;96590.75;;;18.73;49.73
52653;BME280;39353;42.864;12.014;2024-02-26T08:42:16;96589.52;;;18.74;49.88
52653;BME280;39353;42.864;12.014;2024-02-26T08:44:47;96587.12;;;18.75;50.03
52653;BME280;39353;42.864;12.014;2024-02-26T08:47:18;96587.13;;;18.78;49.88
52653;BME280;39353;42.864;12.014;2024-02-26T08:49:50;96585.91;;;18.79;49.93
52653;BME280;39353;42.864;12.014;2024-02-26T08:52:22;96586.80;;;18.78;49.77
52653;BME280;39353;42.864;12.014;2024-02-26T08:54:54;96583.25;;;18.77;49.97
52653;BME280;39353;42.864;12.014;2024-02-26T08:57:26;96584.53;;;18.78;50.13
52653;BME280;39353;42.864;12.014;2024-02-26T08:59:57;96589.96;;;18.78;50.55
52653;BME280;39353;42.864;12.014;2024-02-26T09:02:28;96586.35;;;18.79;50.39
52653;BME280;39353;42.864;12.014;2024-02-26T09:04:59;96583.23;;;18.81;50.33
52653;BME280;39353;42.864;12.014;2024-02-26T09:07:30;96580.45;;;18.81;50.41
52653;BME280;39353;42.864;12.014;2024-02-26T09:10:01;96582.42;;;18.81;50.30
52653;BME280;39353;42.864;12.014;2024-02-26T09:12:32;96582.78;;;18.80;50.24
52653;BME280;39353;42.864;12.014;2024-02-26T09:15:03;96580.52;;;18.78;49.90
52653;BME280;39353;42.864;12.014;2024-02-26T09:17:34;96583.16;;;18.78;49.99
52653;BME280;39353;42.864;12.014;2024-02-26T09:20:07;96582.33;;;18.77;50.08
52653;BME280;39353;42.864;12.014;2024-02-26T09:22:39;96583.80;;;18.77;49.97
52653;BME280;39353;42.864;12.014;2024-02-26T09:25:10;96586.23;;;18.75;49.46
52653;BME280;39353;42.864;12.014;2024-02-26T09:27:41;96585.68;;;18.77;49.87
52653;BME280;39353;42.864;12.014;2024-02-26T09:30:13;96581.95;;;18.75;50.06
52653;BME280;39353;42.864;12.014;2024-02-26T09:32:47;96579.10;;;18.72;50.20
52653;BME280;39353;42.864;12.014;2024-02-26T09:35:18;96576.52;;;18.72;50.04
52653;BME280;39353;42.864;12.014;2024-02-26T09:37:49;96574.43;;;18.74;50.45
52653;BME280;39353;42.864;12.014;2024-02-26T09:40:20;96569.06;;;18.73;49.28
52653;BME280;39353;42.864;12.014;2024-02-26T09:42:59;96570.69;;;18.68;49.48
52653;BME280;39353;42.864;12.014;2024-02-26T09:45:32;96567.68;;;18.67;50.05
52653;BME280;39353;42.864;12.014;2024-02-26T09:48:05;96571.89;;;18.68;49.91
52653;BME280;39353;42.864;12.014;2024-02-26T09:50:39;96572.64;;;18.68;50.24
52653;BME280;39353;42.864;12.014;2024-02-26T09:53:13;96577.09;;;18.68;50.18
52653;BME280;39353;42.864;12.014;2024-02-26T09:55:44;96570.02;;;18.67;50.22
52653;BME280;39353;42.864;12.014;2024-02-26T09:58:17;96569.42;;;18.67;50.13
52653;BME280;39353;42.864;12.014;2024-02-26T10:00:53;96570.48;;;18.66;50.13
52653;BME280;39353;42.864;12.014;2024-02-26T10:03:30;96563.57;;;18.65;50.43
52653;BME280;39353;42.864;12.014;2024-02-26T10:06:02;96565.63;;;18.63;50.30
52653;BME280;39353;42.864;12.014;2024-02-26T10:08:36;96569.81;;;18.63;50.34
52653;BME280;39353;42.864;12.014;2024-02-26T10:11:08;96563.30;;;18.63;50.30
52653;BME280;39353;42.864;12.014;2024-02-26T10:13:41;96559.47;;;18.62;50.37
52653;BME280;39353;42.864;12.014;2024-02-26T10:16:11;96559.74;;;18.62;50.32
52653;BME280;39353;42.864;12.014;2024-02-26T10:18:50;96557.65;;;18.61;50.34
52653;BME280;39353;42.864;12.014;2024-02-26T10:21:22;96553.23;;;18.60;50.43
52653;BME280;39353;42.864;12.014;2024-02-26T10:23:54;96551.86;;;18.59;50.37
52653;BME280;39353;42.864;12.014;2024-02-26T10:26:25;96554.41;;;18.59;50.34
52653;BME280;39353;42.864;12.014;2024-02-26T10:29:00;96547.98;;;18.58;50.47
52653;BME280;39353;42.864;12.014;2024-02-26T10:31:32;96546.11;;;18.57;50.37
52653;BME280;39353;42.864;12.014;2024-02-26T10:34:03;96549.16;;;18.58;50.41
52653;BME280;39353;42.864;12.014;2024-02-26T10:36:36;96544.64;;;18.58;50.44
52653;BME280;39353;42.864;12.014;2024-02-26T10:39:13;96542.35;;;18.57;50.49
52653;BME280;39353;42.864;12.014;2024-02-26T10:41:45;96545.78;;;18.57;50.44
52653;BME280;39353;42.864;12.014;2024-02-26T10:44:16;96544.21;;;18.58;50.43
52653;BME280;39353;42.864;12.014;2024-02-26T10:46:48;96539.96;;;18.57;50.32
52653;BME280;39353;42.864;12.014;2024-02-26T10:49:19;96538.21;;;18.57;50.36
52653;BME280;39353;42.864;12.014;2024-02-26T10:51:56;96528.84;;;18.56;50.55
52653;BME280;39353;42.864;12.014;2024-02-26T10:54:34;96524.98;;;18.54;50.47
52653;BME280;39353;42.864;12.014;2024-02-26T10:57:08;96526.67;;;18.55;50.47
52653;BME280;39353;42.864;12.014;2024-02-26T10:59:40;96531.83;;;18.54;50.34
52653;BME280;39353;42.864;12.014;2024-02-26T11:02:15;96527.77;;;18.54;50.45
52653;BME280;39353;42.864;12.014;2024-02-26T11:04:46;96518.65;;;18.52;50.48
52653;BME280;39353;42.864;12.014;2024-02-26T11:07:18;96517.58;;;18.52;50.51
52653;BME280;39353;42.864;12.014;2024-02-26T11:09:50;96512.15;;;18.51;50.52
52653;BME280;39353;42.864;12.014;2024-02-26T11:12:24;96506.95;;;18.51;50.36
52653;BME280;39353;42.864;12.014;2024-02-26T11:14:56;96508.14;;;18.51;50.53
52653;BME280;39353;42.864;12.014;2024-02-26T11:17:29;96505.33;;;18.50;50.41
52653;BME280;39353;42.864;12.014;2024-02-26T11:20:01;96501.45;;;18.49;50.52
52653;BME280;39353;42.864;12.014;2024-02-26T11:22:32;96492.40;;;18.48;50.50
52653;BME280;39353;42.864;12.014;2024-02-26T11:25:04;96493.91;;;18.47;50.52
52653;BME280;39353;42.864;12.014;2024-02-26T11:27:40;96492.42;;;18.46;50.42
52653;BME280;39353;42.864;12.014;2024-02-26T11:30:15;96492.66;;;18.47;50.48
52653;BME280;39353;42.864;12.014;2024-02-26T11:32:47;96487.98;;;18.47;50.50
52653;BME280;39353;42.864;12.014;2024-02-26T11:35:20;96488.48;;;18.47;50.44
52653;BME280;39353;42.864;12.014;2024-02-26T11:37:56;96485.60;;;18.47;50.37
52653;BME280;39353;42.864;12.014;2024-02-26T11:40:33;96485.82;;;18.47;50.32
52653;BME280;39353;42.864;12.014;2024-02-26T11:43:09;96486.23;;;18.47;50.32
52653;BME280;39353;42.864;12.014;2024-02-26T11:45:52;96492.80;;;18.46;50.40
52653;BME280;39353;42.864;12.014;2024-02-26T11:48:28;96493.82;;;18.46;50.44
52653;BME280;39353;42.864;12.014;2024-02-26T11:50:59;96496.25;;;18.45;50.42
52653;BME280;39353;42.864;12.014;2024-02-26T11:53:31;96494.57;;;18.45;50.58
52653;BME280;39353;42.864;12.014;2024-02-26T11:56:29;96493.58;;;18.45;50.57
52653;BME280;39353;42.864;12.014;2024-02-26T11:59:08;96487.41;;;18.43;50.59
52653;BME280;39353;42.864;12.014;2024-02-26T12:01:44;96486.79;;;18.43;50.59
52653;BME280;39353;42.864;12.014;2024-02-26T12:04:21;96484.31;;;18.41;50.65
52653;BME280;39353;42.864;12.014;2024-02-26T12:06:56;96475.83;;;18.41;50.66
52653;BME280;39353;42.864;12.014;2024-02-26T12:09:37;96473.45;;;18.40;50.59
52653;BME280;39353;42.864;12.014;2024-02-26T12:12:11;96466.77;;;18.40;50.57
52653;BME280;39353;42.864;12.014;2024-02-26T12:14:55;96463.50;;;18.40;50.51
52653;BME280;39353;42.864;12.014;2024-02-26T12:17:27;96461.77;;;18.41;50.59
52653;BME280;39353;42.864;12.014;2024-02-26T12:20:09;96453.61;;;18.41;50.44
52653;BME280;39353;42.864;12.014;2024-02-26T12:22:41;96455.18;;;18.40;50.45
52653;BME280;39353;42.864;12.014;2024-02-26T12:25:15;96453.77;;;18.40;50.43
52653;BME280;39353;42.864;12.014;2024-02-26T12:27:46;96451.43;;;18.40;50.55
52653;BME280;39353;42.864;12.014;2024-02-26T12:30:17;96450.40;;;18.40;50.55
52653;BME280;39353;42.864;12.014;2024-02-26T12:32:49;96448.02;;;18.38;49.83
52653;BME280;39353;42.864;12.014;2024-02-26T12:35:22;96445.55;;;18.28;49.33
52653;BME280;39353;42.864;12.014;2024-02-26T12:37:53;96440.05;;;18.30;50.02
52653;BME280;39353;42.864;12.014;2024-02-26T12:40:25;96433.00;;;18.32;50.14
52653;BME280;39353;42.864;12.014;2024-02-26T12:42:56;96416.55;;;18.33;50.15
52653;BME280;39353;42.864;12.014;2024-02-26T12:45:27;96410.61;;;18.32;50.36
52653;BME280;39353;42.864;12.014;2024-02-26T12:47:58;96414.55;;;18.33;50.37
52653;BME280;39353;42.864;12.014;2024-02-26T12:50:29;96412.06;;;18.36;50.44
52653;BME280;39353;42.864;12.014;2024-02-26T12:53:01;96416.89;;;18.37;50.57
52653;BME280;39353;42.864;12.014;2024-02-26T12:55:33;96421.44;;;18.37;50.58
52653;BME280;39353;42.864;12.014;2024-02-26T12:58:06;96425.40;;;18.37;50.49
52653;BME280;39353;42.864;12.014;2024-02-26T13:00:37;96431.27;;;18.37;50.71
52653;BME280;39353;42.864;12.014;2024-02-26T13:03:09;96420.69;;;18.37;50.66
52653;BME280;39353;42.864;12.014;2024-02-26T13:05:41;96412.04;;;18.37;50.69
52653;BME280;39353;42.864;12.014;2024-02-26T13:08:18;96408.00;;;18.36;50.78
52653;BME280;39353;42.864;12.014;2024-02-26T13:10:50;96410.82;;;18.36;50.73
52653;BME280;39353;42.864;12.014;2024-02-26T13:13:22;96404.32;;;18.37;50.68
52653;BME280;39353;42.864;12.014;2024-02-26T13:16:03;96400.84;;;18.37;50.72
52653;BME280;39353;42.864;12.014;2024-02-26T13:18:36;96403.28;;;18.36;50.65